createdAt,value
2019-04-06T00:00:51.339Z,6.97
2019-04-06T00:01:51.334Z,6.95
2019-04-06T00:02:51.311Z,7.05
2019-04-06T00:03:52.131Z,6.94
2019-04-06T00:04:51.291Z,7.02
2019-04-06T00:05:51.284Z,7.04
2019-04-06T00:06:51.263Z,6.99
2019-04-06T00:07:51.250Z,6.99
2019-04-06T00:08:51.241Z,6.99
2019-04-06T00:09:51.229Z,6.95
2019-04-06T00:10:51.221Z,6.91
2019-04-06T00:11:51.223Z,6.90
2019-04-06T00:12:51.208Z,6.99
2019-04-06T00:13:51.187Z,6.90
2019-04-06T00:14:51.176Z,6.98
2019-04-06T00:15:51.164Z,6.91
2019-04-06T00:16:51.152Z,7.05
2019-04-06T00:17:51.152Z,6.98
2019-04-06T00:18:51.131Z,6.98
2019-04-06T00:19:51.119Z,7.09
2019-04-06T00:20:51.109Z,7.02
2019-04-06T00:21:51.100Z,7.08
2019-04-06T00:22:51.088Z,7.04
2019-04-06T00:23:51.085Z,6.91
2019-04-06T00:24:51.073Z,6.97
2019-04-06T00:25:51.078Z,6.98
2019-04-06T00:26:51.042Z,7.05
2019-04-06T00:27:51.032Z,6.94
2019-04-06T00:28:51.022Z,7.07
2019-04-06T00:29:51.020Z,7.08
2019-04-06T00:30:51.001Z,7.13
2019-04-06T00:31:50.992Z,7.07
2019-04-06T00:32:50.987Z,7.08
2019-04-06T00:33:50.969Z,7.09
2019-04-06T00:34:50.958Z,7.09
2019-04-06T00:35:50.976Z,6.98
2019-04-06T00:36:50.938Z,7.02
2019-04-06T00:37:50.926Z,7.07
2019-04-06T00:38:50.915Z,7.07
2019-04-06T00:39:50.904Z,7.04
2019-04-06T00:40:50.906Z,7.05
2019-04-06T00:41:50.912Z,7.09
2019-04-06T00:42:50.873Z,7.09
2019-04-06T00:43:50.865Z,7.07
2019-04-06T00:44:50.853Z,6.99
2019-04-06T00:45:50.841Z,7.07
2019-04-06T00:46:50.830Z,7.07
2019-04-06T00:47:50.843Z,7.09
2019-04-06T00:48:50.809Z,7.08
2019-04-06T00:49:50.799Z,7.09
2019-04-06T00:50:50.788Z,7.02
2019-04-06T00:51:50.846Z,7.05
2019-04-06T00:52:50.765Z,7.09
2019-04-06T00:53:50.765Z,7.12
2019-04-06T00:54:50.789Z,7.12
2019-04-06T00:55:55.917Z,7.08
2019-04-06T00:56:51.739Z,7.07
2019-04-06T00:57:50.711Z,7.08
2019-04-06T00:58:50.736Z,7.07
2019-04-06T00:59:50.712Z,7.05
2019-04-06T01:00:50.679Z,7.02
2019-04-06T01:01:50.671Z,7.02
2019-04-06T01:02:50.659Z,6.99
2019-04-06T01:03:50.646Z,7.08
2019-04-06T01:04:50.638Z,6.99
2019-04-06T01:05:50.634Z,7.02
2019-04-06T01:06:50.614Z,7.05
2019-04-06T01:07:50.604Z,7.02
2019-04-06T01:08:50.599Z,7.07
2019-04-06T01:09:50.599Z,7.07
2019-04-06T01:10:50.572Z,7.08
2019-04-06T01:11:50.578Z,7.05
2019-04-06T01:12:50.549Z,7.04
2019-04-06T01:13:50.543Z,7.07
2019-04-06T01:14:50.527Z,7.08
2019-04-06T01:15:50.521Z,7.05
2019-04-06T01:16:50.508Z,7.08
2019-04-06T01:17:50.505Z,6.99
2019-04-06T01:18:50.486Z,6.98
2019-04-06T01:19:50.473Z,6.97
2019-04-06T01:20:50.462Z,6.91
2019-04-06T01:21:50.462Z,7.07
2019-04-06T01:22:50.488Z,7.04
2019-04-06T01:23:50.439Z,6.94
2019-04-06T01:24:50.417Z,6.91
2019-04-06T01:25:50.415Z,6.95
2019-04-06T01:26:50.397Z,6.95
2019-04-06T01:27:50.385Z,7.02
2019-04-06T01:28:50.377Z,6.94
2019-04-06T01:29:50.395Z,6.98
2019-04-06T01:30:50.353Z,6.95
2019-04-06T01:31:50.340Z,7.02
2019-04-06T01:32:50.330Z,7.02
2019-04-06T01:33:50.320Z,7.05
2019-04-06T01:34:50.308Z,7.08
2019-04-06T01:35:50.309Z,7.02
2019-04-06T01:36:50.287Z,6.95
2019-04-06T01:37:50.277Z,7.01
2019-04-06T01:38:50.265Z,7.07
2019-04-06T01:39:50.252Z,7.12
2019-04-06T01:40:50.241Z,6.95
2019-04-06T01:41:50.243Z,6.98
2019-04-06T01:42:50.277Z,7.02
2019-04-06T01:43:50.209Z,6.99
2019-04-06T01:44:50.198Z,6.91
2019-04-06T01:45:50.188Z,7.04
2019-04-06T01:46:50.177Z,7.09
2019-04-06T01:47:50.183Z,7.07
2019-04-06T01:48:50.155Z,7.05
2019-04-06T01:49:50.142Z,7.07
2019-04-06T01:50:50.135Z,7.07
2019-04-06T01:51:50.121Z,7.08
2019-04-06T01:52:50.114Z,7.08
2019-04-06T01:53:50.113Z,7.13
2019-04-06T01:54:50.088Z,7.05
2019-04-06T01:55:50.076Z,7.09
2019-04-06T01:56:50.071Z,7.04
2019-04-06T01:57:50.055Z,7.05
2019-04-06T01:58:50.045Z,7.08
2019-04-06T01:59:50.044Z,7.09
2019-04-06T02:00:50.024Z,7.07
2019-04-06T02:01:50.013Z,7.12
2019-04-06T02:02:50.001Z,7.15
2019-04-06T02:03:49.998Z,7.13
2019-04-06T02:04:49.979Z,7.08
2019-04-06T02:05:49.997Z,7.13
2019-04-06T02:06:49.958Z,7.13
2019-04-06T02:07:49.947Z,7.20
2019-04-06T02:08:49.936Z,7.12
2019-04-06T02:09:49.926Z,7.19
2019-04-06T02:10:49.919Z,7.20
2019-04-06T02:11:49.909Z,7.15
2019-04-06T02:12:49.922Z,7.16
2019-04-06T02:13:49.878Z,7.12
2019-04-06T02:14:49.868Z,7.09
2019-04-06T02:15:49.907Z,7.07
2019-04-06T02:16:49.846Z,7.20
2019-04-06T02:17:49.846Z,7.12
2019-04-06T02:18:49.824Z,7.09
2019-04-06T02:19:49.869Z,7.16
2019-04-06T02:20:49.803Z,7.17
2019-04-06T02:21:49.793Z,7.07
2019-04-06T02:22:49.782Z,7.09
2019-04-06T02:23:50.004Z,7.13
2019-04-06T02:24:49.792Z,7.17
2019-04-06T02:25:49.751Z,7.23
2019-04-06T02:26:49.739Z,7.13
2019-04-06T02:27:49.728Z,7.19
2019-04-06T02:28:49.718Z,7.15
2019-04-06T02:29:49.731Z,7.23
2019-04-06T02:30:49.696Z,7.20
2019-04-06T02:31:49.709Z,7.22
2019-04-06T02:32:49.676Z,7.22
2019-04-06T02:33:49.664Z,7.19
2019-04-06T02:34:49.745Z,7.17
2019-04-06T02:35:49.743Z,7.23
2019-04-06T02:36:49.635Z,7.15
2019-04-06T02:37:49.900Z,7.22
2019-04-06T02:38:49.617Z,7.24
2019-04-06T02:39:49.608Z,7.22
2019-04-06T02:40:49.596Z,7.24
2019-04-06T02:41:49.602Z,7.27
2019-04-06T02:42:49.569Z,7.27
2019-04-06T02:43:49.559Z,7.24
2019-04-06T02:44:49.547Z,7.23
2019-04-06T02:45:49.536Z,7.26
2019-04-06T02:46:49.691Z,7.26
2019-04-06T02:47:49.525Z,7.23
2019-04-06T02:48:49.504Z,7.24
2019-04-06T02:49:49.496Z,7.26
2019-04-06T02:50:49.636Z,7.31
2019-04-06T02:51:49.473Z,7.31
2019-04-06T02:52:49.467Z,7.27
2019-04-06T02:53:49.464Z,7.27
2019-04-06T02:54:49.441Z,7.31
2019-04-06T02:55:49.429Z,7.38
2019-04-06T02:56:49.419Z,7.29
2019-04-06T02:57:49.475Z,7.34
2019-04-06T02:58:49.397Z,7.31
2019-04-06T02:59:49.407Z,7.27
2019-04-06T03:00:49.378Z,7.29
2019-04-06T03:01:49.364Z,7.37
2019-04-06T03:02:49.355Z,7.31
2019-04-06T03:03:49.345Z,7.35
2019-04-06T03:04:49.336Z,7.42
2019-04-06T03:05:49.550Z,7.38
2019-04-06T03:06:49.361Z,7.40
2019-04-06T03:07:49.300Z,7.35
2019-04-06T03:08:49.290Z,7.40
2019-04-06T03:09:49.281Z,7.38
2019-04-06T03:10:49.269Z,7.41
2019-04-06T03:11:49.266Z,7.40
2019-04-06T03:12:49.246Z,7.47
2019-04-06T03:13:49.234Z,7.41
2019-04-06T03:14:49.228Z,7.41
2019-04-06T03:15:49.220Z,7.40
2019-04-06T03:16:49.203Z,7.40
2019-04-06T03:17:49.200Z,7.35
2019-04-06T03:18:49.183Z,7.38
2019-04-06T03:19:49.199Z,7.41
2019-04-06T03:20:49.175Z,7.37
2019-04-06T03:21:49.147Z,7.53
2019-04-06T03:22:49.141Z,7.52
2019-04-06T03:23:51.984Z,7.38
2019-04-06T03:24:49.171Z,7.50
2019-04-06T03:25:49.105Z,7.52
2019-04-06T03:27:01.045Z,7.45
2019-04-06T03:27:50.085Z,7.45
2019-04-06T03:28:49.083Z,7.45
2019-04-06T03:29:57.296Z,7.35
2019-04-06T03:30:50.225Z,7.53
2019-04-06T03:31:49.200Z,7.50
2019-04-06T03:32:49.091Z,7.42
2019-04-06T03:33:49.062Z,7.52
2019-04-06T03:34:49.009Z,7.49
2019-04-06T03:35:50.473Z,7.55
2019-04-06T03:36:48.986Z,7.56
2019-04-06T03:37:48.977Z,7.55
2019-04-06T03:38:48.972Z,7.50
2019-04-06T03:39:48.955Z,7.47
2019-04-06T03:40:48.944Z,7.47
2019-04-06T03:41:48.945Z,7.53
2019-04-06T03:42:48.929Z,7.53
2019-04-06T03:43:48.916Z,7.58
2019-04-06T03:44:48.921Z,7.50
2019-04-06T03:45:48.890Z,7.47
2019-04-06T03:46:49.081Z,7.53
2019-04-06T03:47:48.867Z,7.52
2019-04-06T03:48:48.848Z,7.58
2019-04-06T03:49:48.836Z,7.53
2019-04-06T03:50:48.863Z,7.53
2019-04-06T03:51:48.815Z,7.59
2019-04-06T03:52:48.804Z,7.59
2019-04-06T03:53:48.815Z,7.56
2019-04-06T03:54:48.782Z,7.52
2019-04-06T03:55:48.772Z,7.50
2019-04-06T03:56:48.761Z,7.53
2019-04-06T03:57:48.751Z,7.58
2019-04-06T03:58:51.897Z,7.49
2019-04-06T03:59:48.749Z,7.59
2019-04-06T04:00:48.719Z,7.52
2019-04-06T04:01:48.751Z,7.55
2019-04-06T04:02:48.698Z,7.52
2019-04-06T04:03:48.687Z,7.66
2019-04-06T04:04:48.677Z,7.49
2019-04-06T04:05:48.679Z,7.52
2019-04-06T04:06:48.658Z,7.56
2019-04-06T04:07:48.708Z,7.45
2019-04-06T04:08:48.634Z,7.58
2019-04-06T04:09:48.623Z,7.55
2019-04-06T04:10:48.612Z,7.67
2019-04-06T04:11:48.618Z,7.49
2019-04-06T04:12:48.589Z,7.56
2019-04-06T04:13:48.848Z,7.60
2019-04-06T04:14:48.570Z,7.59
2019-04-06T04:15:48.817Z,7.66
2019-04-06T04:16:48.549Z,7.67
2019-04-06T04:17:48.553Z,7.63
2019-04-06T04:18:48.560Z,7.67
2019-04-06T04:19:48.542Z,7.60
2019-04-06T04:20:48.509Z,7.56
2019-04-06T04:21:48.497Z,7.62
2019-04-06T04:22:48.685Z,7.55
2019-04-06T04:23:48.565Z,7.58
2019-04-06T04:24:48.463Z,7.53
2019-04-06T04:25:48.453Z,7.67
2019-04-06T04:26:48.641Z,7.53
2019-04-06T04:27:48.505Z,7.66
2019-04-06T04:28:48.422Z,7.55
2019-04-06T04:29:48.420Z,7.69
2019-04-06T04:30:48.453Z,7.69
2019-04-06T04:31:48.389Z,7.56
2019-04-06T04:32:48.378Z,7.56
2019-04-06T04:33:48.366Z,7.59
2019-04-06T04:34:48.358Z,7.55
2019-04-06T04:35:48.358Z,7.67
2019-04-06T04:36:48.335Z,7.60
2019-04-06T04:37:48.553Z,7.71
2019-04-06T04:38:48.318Z,7.72
2019-04-06T04:39:48.304Z,7.67
2019-04-06T04:40:48.293Z,7.66
2019-04-06T04:41:48.406Z,7.77
2019-04-06T04:42:48.276Z,7.78
2019-04-06T04:43:48.261Z,7.67
2019-04-06T04:44:48.377Z,7.71
2019-04-06T04:45:48.258Z,7.67
2019-04-06T04:46:48.246Z,7.74
2019-04-06T04:47:50.177Z,7.71
2019-04-06T04:48:48.284Z,7.69
2019-04-06T04:49:48.197Z,7.71
2019-04-06T04:50:48.187Z,7.66
2019-04-06T04:51:48.176Z,7.87
2019-04-06T04:52:48.165Z,7.69
2019-04-06T04:53:48.419Z,7.71
2019-04-06T04:54:48.148Z,7.74
2019-04-06T04:55:48.139Z,7.78
2019-04-06T04:56:48.125Z,7.69
2019-04-06T04:57:48.168Z,7.71
2019-04-06T04:58:48.101Z,7.72
2019-04-06T04:59:48.102Z,7.72
2019-04-06T05:00:48.083Z,7.71
2019-04-06T05:01:48.212Z,7.74
2019-04-06T05:02:48.060Z,7.74
2019-04-06T05:03:48.048Z,7.69
2019-04-06T05:04:48.037Z,7.82
2019-04-06T05:05:48.037Z,7.69
2019-04-06T05:06:48.015Z,7.69
2019-04-06T05:07:48.004Z,7.74
2019-04-06T05:08:47.993Z,7.72
2019-04-06T05:09:47.983Z,7.81
2019-04-06T05:10:47.972Z,7.74
2019-04-06T05:11:49.093Z,7.75
2019-04-06T05:12:47.951Z,7.79
2019-04-06T05:13:47.940Z,7.72
2019-04-06T05:14:47.930Z,7.69
2019-04-06T05:15:47.979Z,7.77
2019-04-06T05:16:47.908Z,7.72
2019-04-06T05:17:47.918Z,7.77
2019-04-06T05:18:47.888Z,7.77
2019-04-06T05:19:47.883Z,7.74
2019-04-06T05:20:47.987Z,7.81
2019-04-06T05:21:47.856Z,7.79
2019-04-06T05:22:47.846Z,7.74
2019-04-06T05:23:47.844Z,7.85
2019-04-06T05:24:47.824Z,7.78
2019-04-06T05:25:47.816Z,7.82
2019-04-06T05:26:47.803Z,7.84
2019-04-06T05:27:52.601Z,7.89
2019-04-06T05:28:48.790Z,7.84
2019-04-06T05:29:47.770Z,7.78
2019-04-06T05:30:47.759Z,7.81
2019-04-06T05:31:47.749Z,7.82
2019-04-06T05:32:47.739Z,7.79
2019-04-06T05:33:47.740Z,7.81
2019-04-06T05:34:47.727Z,7.82
2019-04-06T05:35:47.706Z,7.84
2019-04-06T05:36:47.699Z,7.81
2019-04-06T05:37:47.685Z,7.82
2019-04-06T05:38:47.677Z,7.85
2019-04-06T05:39:47.675Z,7.92
2019-04-06T05:40:47.661Z,7.94
2019-04-06T05:41:47.643Z,7.94
2019-04-06T05:42:47.631Z,7.89
2019-04-06T05:43:47.619Z,7.96
2019-04-06T05:44:47.609Z,7.89
2019-04-06T05:45:47.598Z,7.92
2019-04-06T05:46:47.644Z,7.96
2019-04-06T05:47:47.730Z,7.97
2019-04-06T05:48:47.566Z,7.96
2019-04-06T05:49:47.555Z,8.04
2019-04-06T05:50:47.545Z,7.97
2019-04-06T05:51:47.533Z,8.07
2019-04-06T05:52:47.534Z,8.08
2019-04-06T05:53:47.560Z,8.08
2019-04-06T05:54:47.632Z,8.14
2019-04-06T05:55:47.489Z,8.17
2019-04-06T05:56:47.479Z,8.18
2019-04-06T05:57:47.485Z,8.08
2019-04-06T05:58:47.598Z,8.11
2019-04-06T05:59:47.445Z,8.15
2019-04-06T06:00:47.435Z,8.10
2019-04-06T06:01:48.903Z,8.17
2019-04-06T06:02:47.414Z,8.12
2019-04-06T06:03:47.408Z,8.12
2019-04-06T06:04:47.403Z,8.25
2019-04-06T06:05:47.379Z,8.25
2019-04-06T06:06:47.368Z,8.26
2019-04-06T06:07:47.363Z,8.33
2019-04-06T06:08:47.347Z,8.44
2019-04-06T06:09:47.339Z,8.33
2019-04-06T06:10:47.440Z,8.44
2019-04-06T06:11:47.315Z,8.28
2019-04-06T06:12:47.303Z,8.37
2019-04-06T06:13:47.293Z,8.28
2019-04-06T06:14:47.382Z,8.22
2019-04-06T06:15:47.368Z,8.28
2019-04-06T06:16:47.269Z,8.37
2019-04-06T06:17:47.251Z,8.40
2019-04-06T06:18:47.243Z,8.42
2019-04-06T06:19:47.284Z,8.60
2019-04-06T06:20:48.355Z,8.45
2019-04-06T06:21:47.207Z,8.45
2019-04-06T06:22:47.207Z,8.44
2019-04-06T06:23:47.188Z,8.48
2019-04-06T06:24:47.178Z,8.45
2019-04-06T06:25:47.166Z,8.42
2019-04-06T06:26:47.155Z,8.47
2019-04-06T06:27:47.143Z,8.50
2019-04-06T06:28:47.160Z,8.50
2019-04-06T06:29:47.121Z,8.45
2019-04-06T06:30:47.110Z,8.45
2019-04-06T06:31:47.101Z,8.48
2019-04-06T06:32:47.089Z,8.60
2019-04-06T06:33:47.078Z,8.44
2019-04-06T06:34:47.191Z,8.57
2019-04-06T06:35:47.056Z,8.48
2019-04-06T06:36:47.046Z,8.47
2019-04-06T06:37:47.246Z,8.45
2019-04-06T06:38:47.026Z,8.37
2019-04-06T06:39:47.012Z,8.33
2019-04-06T06:40:47.020Z,8.39
2019-04-06T06:41:46.990Z,8.35
2019-04-06T06:42:46.992Z,8.40
2019-04-06T06:43:46.969Z,8.44
2019-04-06T06:44:46.958Z,8.39
2019-04-06T06:45:46.948Z,8.45
2019-04-06T06:46:46.953Z,8.53
2019-04-06T06:47:46.925Z,8.53
2019-04-06T06:48:46.914Z,8.62
2019-04-06T06:49:46.904Z,8.45
2019-04-06T06:50:46.895Z,8.48
2019-04-06T06:51:47.066Z,8.51
2019-04-06T06:52:46.882Z,8.48
2019-04-06T06:53:46.861Z,8.54
2019-04-06T06:54:46.851Z,8.58
2019-04-06T06:55:46.864Z,8.62
2019-04-06T06:56:46.828Z,8.57
2019-04-06T06:57:46.925Z,8.58
2019-04-06T06:58:46.829Z,8.57
2019-04-06T06:59:46.796Z,8.62
2019-04-06T07:00:46.786Z,8.60
2019-04-06T07:01:46.778Z,8.60
2019-04-06T07:02:46.766Z,8.63
2019-04-06T07:03:46.754Z,8.73
2019-04-06T07:04:46.756Z,8.69
2019-04-06T07:05:46.732Z,8.69
2019-04-06T07:06:46.720Z,8.78
2019-04-06T07:07:46.709Z,8.78
2019-04-06T07:08:46.924Z,8.71
2019-04-06T07:09:46.701Z,8.76
2019-04-06T07:10:46.691Z,8.79
2019-04-06T07:11:46.665Z,8.90
2019-04-06T07:12:46.849Z,8.90
2019-04-06T07:13:46.824Z,8.97
2019-04-06T07:14:46.632Z,8.99
2019-04-06T07:15:46.624Z,8.96
2019-04-06T07:16:46.628Z,9.04
2019-04-06T07:17:46.600Z,8.97
2019-04-06T07:18:46.588Z,9.01
2019-04-06T07:19:46.583Z,9.05
2019-04-06T07:20:46.566Z,9.18
2019-04-06T07:21:46.593Z,9.16
2019-04-06T07:22:46.636Z,9.13
2019-04-06T07:23:46.534Z,9.12
2019-04-06T07:24:46.523Z,9.21
2019-04-06T07:25:56.661Z,9.06
2019-04-06T07:26:47.768Z,9.16
2019-04-06T07:27:46.492Z,9.16
2019-04-06T07:28:46.489Z,9.23
2019-04-06T07:29:46.683Z,9.15
2019-04-06T07:30:46.708Z,9.15
2019-04-06T07:31:46.447Z,9.21
2019-04-06T07:32:46.435Z,9.20
2019-04-06T07:33:46.519Z,9.18
2019-04-06T07:34:46.423Z,9.13
2019-04-06T07:35:46.404Z,9.16
2019-04-06T07:36:46.398Z,9.18
2019-04-06T07:37:46.572Z,9.15
2019-04-06T07:38:46.374Z,9.20
2019-04-06T07:39:46.357Z,9.23
2019-04-06T07:40:46.356Z,9.23
2019-04-06T07:41:46.337Z,9.24
2019-04-06T07:42:46.329Z,9.20
2019-04-06T07:43:46.313Z,9.27
2019-04-06T07:44:46.302Z,9.39
2019-04-06T07:45:46.306Z,9.45
2019-04-06T07:46:46.301Z,9.42
2019-04-06T07:47:46.269Z,9.38
2019-04-06T07:48:46.448Z,9.43
2019-04-06T07:49:46.745Z,9.52
2019-04-06T07:50:46.236Z,9.45
2019-04-06T07:51:46.226Z,9.56
2019-04-06T07:52:46.384Z,9.58
2019-04-06T07:53:46.205Z,9.57
2019-04-06T07:54:46.196Z,9.49
2019-04-06T07:55:46.183Z,9.49
2019-04-06T07:56:46.173Z,9.58
2019-04-06T07:57:46.162Z,9.57
2019-04-06T07:58:49.645Z,9.58
2019-04-06T07:59:46.141Z,9.61
2019-04-06T08:00:46.132Z,9.49
2019-04-06T08:01:48.292Z,9.58
2019-04-06T08:02:46.107Z,9.56
2019-04-06T08:03:46.098Z,9.61
2019-04-06T08:04:46.098Z,9.61
2019-04-06T08:05:46.076Z,9.67
2019-04-06T08:06:46.065Z,9.58
2019-04-06T08:07:46.059Z,9.66
2019-04-06T08:08:46.050Z,9.60
2019-04-06T08:09:46.034Z,9.63
2019-04-06T08:10:46.032Z,9.58
2019-04-06T08:11:46.012Z,9.60
2019-04-06T08:12:46.009Z,9.66
2019-04-06T08:13:46.016Z,9.60
2019-04-06T08:14:45.979Z,9.60
2019-04-06T08:15:45.969Z,9.67
2019-04-06T08:16:45.968Z,9.75
2019-04-06T08:17:45.947Z,9.60
2019-04-06T08:18:46.028Z,9.70
2019-04-06T08:19:45.924Z,9.71
2019-04-06T08:20:46.037Z,9.76
2019-04-06T08:21:45.903Z,9.76
2019-04-06T08:22:45.904Z,9.75
2019-04-06T08:23:45.881Z,9.67
2019-04-06T08:24:45.870Z,9.73
2019-04-06T08:25:45.861Z,9.68
2019-04-06T08:26:46.270Z,9.73
2019-04-06T08:27:45.837Z,9.70
2019-04-06T08:28:45.838Z,9.75
2019-04-06T08:29:45.831Z,9.70
2019-04-06T08:30:46.851Z,9.70
2019-04-06T08:31:45.794Z,9.75
2019-04-06T08:32:45.784Z,9.75
2019-04-06T08:33:45.774Z,9.79
2019-04-06T08:34:45.774Z,9.79
2019-04-06T08:35:45.926Z,9.75
2019-04-06T08:36:45.761Z,9.86
2019-04-06T08:37:45.730Z,9.85
2019-04-06T08:38:45.923Z,9.79
2019-04-06T08:39:45.727Z,9.83
2019-04-06T08:40:45.713Z,9.85
2019-04-06T08:41:45.688Z,9.89
2019-04-06T08:42:45.678Z,9.83
2019-04-06T08:43:45.787Z,9.83
2019-04-06T08:44:45.670Z,9.85
2019-04-06T08:45:45.645Z,9.88
2019-04-06T08:46:45.655Z,9.91
2019-04-06T08:47:45.623Z,9.97
2019-04-06T08:48:45.613Z,9.99
2019-04-06T08:49:45.602Z,9.99
2019-04-06T08:50:45.716Z,9.99
2019-04-06T08:51:45.581Z,10.06
2019-04-06T08:52:45.593Z,10.01
2019-04-06T08:53:45.602Z,10.10
2019-04-06T08:54:45.548Z,10.10
2019-04-06T08:55:45.653Z,10.06
2019-04-06T08:56:45.527Z,10.06
2019-04-06T08:57:45.519Z,10.12
2019-04-06T08:58:45.718Z,10.10
2019-04-06T08:59:45.494Z,10.06
2019-04-06T09:00:45.530Z,10.10
2019-04-06T09:01:45.527Z,10.10
2019-04-06T09:02:45.461Z,10.24
2019-04-06T09:03:45.714Z,10.15
2019-04-06T09:04:45.454Z,10.19
2019-04-06T09:05:45.580Z,10.25
2019-04-06T09:06:45.419Z,10.18
2019-04-06T09:07:45.526Z,10.21
2019-04-06T09:08:45.406Z,10.26
2019-04-06T09:09:45.387Z,10.30
2019-04-06T09:10:45.398Z,10.28
2019-04-06T09:11:45.365Z,10.30
2019-04-06T09:12:45.357Z,10.26
2019-04-06T09:13:45.342Z,10.34
2019-04-06T09:14:45.347Z,10.37
2019-04-06T09:15:45.321Z,10.37
2019-04-06T09:16:45.458Z,10.37
2019-04-06T09:17:45.298Z,10.42
2019-04-06T09:18:45.295Z,10.40
2019-04-06T09:19:45.395Z,10.46
2019-04-06T09:20:45.271Z,10.53
2019-04-06T09:21:45.634Z,10.52
2019-04-06T09:22:45.265Z,10.59
2019-04-06T09:23:45.233Z,10.65
2019-04-06T09:24:45.230Z,10.77
2019-04-06T09:25:45.240Z,10.84
2019-04-06T09:26:47.992Z,10.81
2019-04-06T09:27:45.339Z,10.68
2019-04-06T09:28:45.193Z,10.80
2019-04-06T09:29:45.327Z,10.68
2019-04-06T09:30:45.173Z,10.80
2019-04-06T09:31:45.159Z,10.84
2019-04-06T09:32:45.138Z,10.84
2019-04-06T09:33:45.127Z,10.89
2019-04-06T09:34:45.135Z,11.03
2019-04-06T09:35:45.104Z,10.98
2019-04-06T09:36:45.094Z,10.94
2019-04-06T09:37:45.083Z,11.01
2019-04-06T09:38:45.198Z,11.11
2019-04-06T09:39:45.061Z,11.17
2019-04-06T09:40:45.061Z,11.19
2019-04-06T09:41:45.040Z,11.21
2019-04-06T09:42:45.196Z,11.24
2019-04-06T09:43:45.020Z,11.34
2019-04-06T09:44:45.007Z,11.47
2019-04-06T09:45:44.999Z,11.38
2019-04-06T09:46:44.996Z,11.29
2019-04-06T09:47:45.006Z,11.41
2019-04-06T09:48:44.964Z,11.39
2019-04-06T09:49:44.954Z,11.49
2019-04-06T09:50:44.943Z,11.54
2019-04-06T09:51:44.932Z,11.68
2019-04-06T09:52:44.932Z,11.72
2019-04-06T09:53:44.912Z,11.80
2019-04-06T09:54:44.899Z,11.85
2019-04-06T09:55:44.891Z,11.74
2019-04-06T09:56:44.880Z,11.85
2019-04-06T09:57:44.874Z,11.90
2019-04-06T09:58:44.865Z,12.06
2019-04-06T09:59:44.845Z,12.02
2019-04-06T10:00:44.834Z,11.93
2019-04-06T10:01:44.837Z,11.78
2019-04-06T10:02:44.812Z,11.70
2019-04-06T10:03:44.801Z,11.74
2019-04-06T10:04:44.803Z,11.68
2019-04-06T10:05:44.782Z,11.90
2019-04-06T10:06:44.770Z,12.06
2019-04-06T10:07:44.760Z,12.27
2019-04-06T10:08:44.747Z,12.38
2019-04-06T10:09:44.939Z,12.59
2019-04-06T10:10:44.750Z,12.38
2019-04-06T10:11:44.718Z,12.29
2019-04-06T10:12:44.704Z,12.21
2019-04-06T10:13:44.692Z,12.15
2019-04-06T10:14:45.130Z,12.24
2019-04-06T10:15:44.673Z,12.26
2019-04-06T10:16:44.670Z,12.29
2019-04-06T10:17:44.656Z,12.42
2019-04-06T10:18:44.638Z,12.54
2019-04-06T10:19:44.629Z,12.75
2019-04-06T10:20:44.624Z,12.85
2019-04-06T10:21:44.613Z,12.70
2019-04-06T10:22:44.606Z,12.67
2019-04-06T10:23:44.587Z,12.78
2019-04-06T10:24:44.575Z,12.62
2019-04-06T10:25:44.563Z,12.52
2019-04-06T10:26:44.700Z,12.39
2019-04-06T10:27:44.687Z,12.26
2019-04-06T10:28:44.544Z,12.26
2019-04-06T10:29:49.517Z,12.19
2019-04-06T10:30:45.506Z,12.06
2019-04-06T10:31:44.497Z,12.01
2019-04-06T10:32:44.486Z,11.83
2019-04-06T10:33:44.474Z,12.01
2019-04-06T10:34:44.495Z,11.96
2019-04-06T10:35:44.751Z,11.94
2019-04-06T10:36:44.452Z,12.04
2019-04-06T10:37:44.431Z,12.12
2019-04-06T10:38:44.423Z,12.15
2019-04-06T10:39:44.696Z,12.31
2019-04-06T10:40:44.420Z,12.51
2019-04-06T10:41:44.393Z,12.62
2019-04-06T10:42:44.377Z,12.62
2019-04-06T10:43:44.628Z,12.59
2019-04-06T10:44:44.356Z,12.70
2019-04-06T10:45:44.346Z,12.69
2019-04-06T10:46:44.345Z,12.71
2019-04-06T10:47:44.324Z,12.56
2019-04-06T10:48:44.314Z,12.62
2019-04-06T10:49:44.303Z,12.78
2019-04-06T10:50:44.299Z,12.84
2019-04-06T10:51:44.281Z,12.78
2019-04-06T10:52:44.489Z,12.69
2019-04-06T10:53:44.262Z,12.85
2019-04-06T10:54:44.265Z,12.92
2019-04-06T10:55:44.249Z,13.00
2019-04-06T10:56:44.229Z,12.85
2019-04-06T10:57:44.575Z,12.82
2019-04-06T10:58:44.218Z,12.93
2019-04-06T10:59:44.196Z,12.63
2019-04-06T11:00:44.449Z,12.62
2019-04-06T11:01:44.176Z,12.69
2019-04-06T11:02:44.164Z,12.85
2019-04-06T11:03:44.235Z,12.88
2019-04-06T11:04:44.163Z,12.67
2019-04-06T11:05:44.131Z,12.67
2019-04-06T11:06:44.121Z,12.82
2019-04-06T11:07:44.111Z,12.74
2019-04-06T11:08:44.257Z,12.82
2019-04-06T11:09:44.089Z,12.84
2019-04-06T11:10:44.095Z,12.87
2019-04-06T11:11:44.067Z,12.93
2019-04-06T11:12:44.056Z,12.78
2019-04-06T11:13:44.154Z,13.00
2019-04-06T11:14:44.034Z,13.03
2019-04-06T11:15:44.258Z,13.07
2019-04-06T11:16:44.029Z,13.07
2019-04-06T11:17:44.217Z,13.12
2019-04-06T11:18:43.998Z,13.22
2019-04-06T11:19:43.981Z,13.11
2019-04-06T11:20:43.991Z,13.07
2019-04-06T11:21:43.961Z,12.92
2019-04-06T11:22:43.958Z,13.17
2019-04-06T11:23:43.937Z,13.18
2019-04-06T11:24:43.936Z,13.24
2019-04-06T11:25:43.916Z,13.21
2019-04-06T11:26:43.906Z,13.25
2019-04-06T11:27:43.905Z,13.29
2019-04-06T11:28:44.094Z,13.30
2019-04-06T11:29:43.874Z,13.25
2019-04-06T11:30:44.118Z,13.24
2019-04-06T11:31:43.850Z,13.33
2019-04-06T11:32:43.839Z,13.30
2019-04-06T11:33:43.829Z,13.24
2019-04-06T11:34:43.828Z,13.27
2019-04-06T11:35:43.811Z,13.33
2019-04-06T11:36:44.078Z,13.36
2019-04-06T11:37:43.787Z,13.44
2019-04-06T11:38:43.779Z,13.51
2019-04-06T11:39:43.812Z,13.69
2019-04-06T11:40:43.973Z,13.63
2019-04-06T11:41:43.762Z,13.74
2019-04-06T11:42:43.800Z,13.76
2019-04-06T11:43:43.754Z,13.70
2019-04-06T11:44:43.716Z,13.79
2019-04-06T11:45:43.701Z,13.77
2019-04-06T11:46:43.702Z,13.77
2019-04-06T11:47:43.678Z,13.81
2019-04-06T11:48:45.289Z,13.81
2019-04-06T11:49:43.656Z,13.80
2019-04-06T11:50:43.648Z,13.65
2019-04-06T11:51:43.633Z,13.71
2019-04-06T11:52:43.656Z,13.80
2019-04-06T11:53:43.617Z,13.70
2019-04-06T11:54:43.602Z,13.51
2019-04-06T11:55:44.861Z,13.70
2019-04-06T11:56:43.727Z,13.63
2019-04-06T11:57:43.852Z,13.67
2019-04-06T11:58:43.568Z,13.67
2019-04-06T11:59:43.617Z,13.52
2019-04-06T12:00:43.540Z,13.44
2019-04-06T12:01:43.815Z,13.54
2019-04-06T12:02:43.518Z,13.52
2019-04-06T12:03:43.505Z,13.51
2019-04-06T12:04:43.626Z,13.69
2019-04-06T12:05:43.495Z,13.63
2019-04-06T12:06:43.473Z,13.69
2019-04-06T12:07:43.463Z,13.63
2019-04-06T12:08:43.449Z,13.49
2019-04-06T12:09:43.440Z,13.52
2019-04-06T12:10:43.438Z,13.54
2019-04-06T12:11:43.417Z,13.55
2019-04-06T12:12:43.415Z,13.43
2019-04-06T12:13:43.397Z,13.38
2019-04-06T12:14:43.385Z,13.51
2019-04-06T12:15:43.542Z,13.54
2019-04-06T12:16:43.432Z,13.56
2019-04-06T12:17:43.354Z,13.73
2019-04-06T12:18:43.350Z,13.79
2019-04-06T12:19:43.341Z,13.80
2019-04-06T12:20:43.324Z,13.83
2019-04-06T12:21:43.309Z,14.06
2019-04-06T12:22:43.390Z,14.13
2019-04-06T12:23:43.288Z,14.25
2019-04-06T12:24:43.677Z,14.25
2019-04-06T12:25:43.520Z,14.21
2019-04-06T12:26:43.258Z,14.13
2019-04-06T12:27:43.255Z,14.16
2019-04-06T12:28:43.247Z,14.24
2019-04-06T12:29:43.224Z,14.34
2019-04-06T12:30:43.467Z,14.25
2019-04-06T12:31:43.329Z,14.38
2019-04-06T12:32:43.264Z,14.37
2019-04-06T12:33:43.394Z,14.31
2019-04-06T12:34:43.182Z,14.20
2019-04-06T12:35:43.160Z,14.21
2019-04-06T12:36:43.807Z,14.27
2019-04-06T12:37:43.357Z,14.35
2019-04-06T12:38:43.134Z,14.27
2019-04-06T12:39:52.228Z,14.25
2019-04-06T12:40:44.112Z,14.16
2019-04-06T12:41:43.094Z,14.37
2019-04-06T12:42:43.082Z,14.52
2019-04-06T12:43:43.222Z,14.39
2019-04-06T12:44:43.211Z,14.56
2019-04-06T12:45:43.048Z,14.52
2019-04-06T12:46:43.139Z,14.65
2019-04-06T12:47:43.038Z,14.37
2019-04-06T12:48:43.015Z,14.52
2019-04-06T12:49:43.007Z,14.42
2019-04-06T12:50:42.993Z,14.47
2019-04-06T12:51:42.984Z,14.46
2019-04-06T12:52:42.994Z,14.54
2019-04-06T12:53:42.966Z,14.53
2019-04-06T12:54:42.949Z,14.37
2019-04-06T12:55:42.938Z,14.38
2019-04-06T12:56:42.929Z,14.39
2019-04-06T12:57:42.918Z,14.39
2019-04-06T12:58:42.928Z,14.31
2019-04-06T12:59:42.897Z,14.31
2019-04-06T13:00:50.933Z,14.27
2019-04-06T13:01:43.870Z,14.31
2019-04-06T13:02:42.860Z,14.29
2019-04-06T13:03:42.871Z,14.37
2019-04-06T13:04:42.849Z,14.53
2019-04-06T13:05:42.827Z,14.56
2019-04-06T13:06:42.818Z,14.57
2019-04-06T13:07:43.162Z,14.62
2019-04-06T13:08:43.069Z,14.68
2019-04-06T13:09:43.041Z,14.84